Time;durP1;ratioP1;P1;durP2;ratioP2;P2;SDS_P1;SDS_P2;PMS_P1;PMS_P2;Temp;Humidity;BMP_temperature;BMP_pressure;BME280_temperature;BME280_humidity;BME280_pressure;Samples;Min_cycle;Max_cycle;Signal;HPM_P1;HPM_P2
2022/09/22 00:02:06;;;;;;;58.33;2.97;;;;;;;;;;5072976;28;20215;-65
2022/09/22 00:04:35;;;;;;;58.45;3.20;;;;;;;;;;5072571;28;20579;-65
2022/09/22 00:07:02;;;;;;;59.75;3.47;;;;;;;;;;5072964;28;20206;-65
2022/09/22 00:09:29;;;;;;;58.47;3.20;;;;;;;;;;5072696;28;20209;-66
2022/09/22 00:11:56;;;;;;;59.10;3.65;;;;;;;;;;5072104;28;20217;-65
2022/09/22 00:14:24;;;;;;;58.15;2.75;;;;;;;;;;5072796;28;20225;-66
2022/09/22 00:16:52;;;;;;;58.45;3.00;;;;;;;;;;5072471;28;20208;-66
2022/09/22 00:19:21;;;;;;;58.85;3.05;;;;;;;;;;5072735;28;20203;-66
2022/09/22 00:21:50;;;;;;;58.78;3.17;;;;;;;;;;5073080;28;20227;-65
2022/09/22 00:24:18;;;;;;;58.58;3.40;;;;;;;;;;5072910;28;20225;-66
2022/09/22 00:26:45;;;;;;;59.08;3.05;;;;;;;;;;5073042;28;20206;-66
2022/09/22 00:29:14;;;;;;;58.90;3.05;;;;;;;;;;5073108;28;20205;-66
2022/09/22 00:31:42;;;;;;;58.97;3.20;;;;;;;;;;5073340;28;20283;-66
2022/09/22 00:34:13;;;;;;;64.05;3.67;;;;;;;;;;5072847;28;20761;-66
2022/09/22 00:36:41;;;;;;;58.85;3.10;;;;;;;;;;5073074;28;20210;-66
2022/09/22 00:39:09;;;;;;;59.35;3.78;;;;;;;;;;5072785;28;20207;-66
2022/09/22 00:41:39;;;;;;;59.20;3.10;;;;;;;;;;5072936;28;20231;-65
2022/09/22 00:44:25;;;;;;;59.30;3.28;;;;;;;;;;5073300;28;20236;-66
2022/09/22 00:46:53;;;;;;;59.38;3.45;;;;;;;;;;5072962;28;20215;-66
2022/09/22 00:49:23;;;;;;;58.58;3.00;;;;;;;;;;5072938;28;20216;-66
2022/09/22 00:51:50;;;;;;;60.00;3.47;;;;;;;;;;5073278;28;20204;-66
2022/09/22 00:54:19;;;;;;;58.58;3.00;;;;;;;;;;5073368;28;20225;-66
2022/09/22 00:56:51;;;;;;;58.78;3.40;;;;;;;;;;5073331;28;20509;-66
2022/09/22 00:59:20;;;;;;;59.20;3.35;;;;;;;;;;5075480;28;20207;-64
2022/09/22 01:01:48;;;;;;;59.38;3.20;;;;;;;;;;5076874;28;20626;-66
2022/09/22 01:04:17;;;;;;;59.30;3.65;;;;;;;;;;5076866;28;20236;-66
2022/09/22 01:06:44;;;;;;;58.70;3.10;;;;;;;;;;5077259;28;20208;-65
2022/09/22 01:09:11;;;;;;;59.10;3.00;;;;;;;;;;5076649;28;20209;-65
2022/09/22 01:11:40;;;;;;;59.08;3.35;;;;;;;;;;5077087;28;20211;-65
2022/09/22 01:14:12;;;;;;;58.42;3.10;;;;;;;;;;5076779;28;20250;-64
2022/09/22 01:16:44;;;;;;;58.42;2.75;;;;;;;;;;5077168;28;20718;-65
2022/09/22 01:19:29;;;;;;;58.72;3.00;;;;;;;;;;5076702;28;20214;-66
2022/09/22 01:22:02;;;;;;;58.65;3.80;;;;;;;;;;5076821;28;20229;-65
2022/09/22 01:24:44;;;;;;;58.83;3.05;;;;;;;;;;5076825;28;20270;-65
2022/09/22 01:27:41;;;;;;;60.50;3.30;;;;;;;;;;5076600;28;20214;-66
2022/09/22 01:30:19;;;;;;;59.60;4.57;;;;;;;;;;5076547;28;20582;-65
2022/09/22 01:33:01;;;;;;;58.88;3.83;;;;;;;;;;5077083;28;20209;-66
2022/09/22 01:35:31;;;;;;;59.30;3.40;;;;;;;;;;5074393;28;20238;-66
2022/09/22 01:38:01;;;;;;;59.17;3.45;;;;;;;;;;5076724;28;20207;-65
2022/09/22 01:40:49;;;;;;;59.55;3.05;;;;;;;;;;5076363;28;20228;-65
2022/09/22 01:43:22;;;;;;;59.35;3.70;;;;;;;;;;5034130;28;20224;-65
2022/09/22 01:45:51;;;;;;;58.67;3.00;;;;;;;;;;5034143;28;20205;-66
2022/09/22 01:48:20;;;;;;;58.70;3.40;;;;;;;;;;5034060;28;20211;-64
2022/09/22 01:50:50;;;;;;;58.58;3.00;;;;;;;;;;5034760;28;20206;-65
2022/09/22 01:53:19;;;;;;;60.25;4.05;;;;;;;;;;5034157;28;20209;-66
2022/09/22 01:55:48;;;;;;;58.92;3.25;;;;;;;;;;5033966;28;20663;-66
2022/09/22 01:58:17;;;;;;;59.58;3.72;;;;;;;;;;5034283;28;20218;-65
2022/09/22 02:00:46;;;;;;;58.65;3.60;;;;;;;;;;5043019;28;20240;-66
2022/09/22 02:03:16;;;;;;;58.67;3.35;;;;;;;;;;5076593;28;20201;-65
2022/09/22 02:05:45;;;;;;;59.58;3.95;;;;;;;;;;5076792;28;20231;-64
2022/09/22 02:08:15;;;;;;;58.67;3.10;;;;;;;;;;5076297;28;20208;-65
2022/09/22 02:10:44;;;;;;;60.20;4.20;;;;;;;;;;5075763;28;20201;-66
2022/09/22 02:13:11;;;;;;;59.92;3.65;;;;;;;;;;5076350;28;20219;-64
2022/09/22 02:18:26;;;;;;;58.70;3.42;;;;;;;;;;5075640;28;20202;-64
2022/09/22 02:20:53;;;;;;;59.40;3.60;;;;;;;;;;5075791;28;20237;-65
2022/09/22 02:23:20;;;;;;;59.40;3.20;;;;;;;;;;5075470;28;20218;-66
2022/09/22 02:25:49;;;;;;;58.40;3.25;;;;;;;;;;5075579;28;20239;-64
2022/09/22 02:28:16;;;;;;;58.67;3.38;;;;;;;;;;5075416;28;20219;-65
2022/09/22 02:30:45;;;;;;;58.70;3.30;;;;;;;;;;5075451;28;20200;-65
2022/09/22 02:33:13;;;;;;;60.20;4.25;;;;;;;;;;5075383;28;20209;-66
2022/09/22 02:35:44;;;;;;;59.47;3.50;;;;;;;;;;5074914;28;20235;-66
2022/09/22 02:38:14;;;;;;;59.58;3.78;;;;;;;;;;5075162;28;20587;-65
2022/09/22 02:40:45;;;;;;;58.97;3.70;;;;;;;;;;5075309;28;20234;-65
2022/09/22 02:43:15;;;;;;;58.90;3.10;;;;;;;;;;5075744;28;20206;-65
2022/09/22 02:45:46;;;;;;;62.90;4.85;;;;;;;;;;5075298;28;20233;-63
2022/09/22 02:48:16;;;;;;;58.88;3.72;;;;;;;;;;5075290;28;20580;-65
2022/09/22 02:50:44;;;;;;;58.55;3.90;;;;;;;;;;5075009;28;20676;-65
2022/09/22 02:53:13;;;;;;;58.72;2.97;;;;;;;;;;5075119;28;20218;-66
2022/09/22 02:55:40;;;;;;;58.67;3.40;;;;;;;;;;5075033;28;20231;-65
2022/09/22 02:58:07;;;;;;;59.65;3.28;;;;;;;;;;5075024;28;20215;-65
2022/09/22 03:00:35;;;;;;;59.30;3.65;;;;;;;;;;5074990;28;20645;-65
2022/09/22 03:03:02;;;;;;;58.22;2.80;;;;;;;;;;5074891;28;20217;-65
2022/09/22 03:05:29;;;;;;;58.47;3.47;;;;;;;;;;5074342;28;20228;-65
2022/09/22 03:07:58;;;;;;;59.28;4.40;;;;;;;;;;5074876;28;20598;-65
2022/09/22 03:10:25;;;;;;;58.40;3.47;;;;;;;;;;5074579;28;20695;-66
2022/09/22 03:12:52;;;;;;;59.38;2.90;;;;;;;;;;5075100;28;20205;-66
2022/09/22 03:15:19;;;;;;;59.90;3.78;;;;;;;;;;5075295;28;20227;-65
2022/09/22 03:17:46;;;;;;;59.30;4.03;;;;;;;;;;5075362;28;20205;-66
2022/09/22 03:20:14;;;;;;;58.92;3.30;;;;;;;;;;5074429;28;20268;-66
2022/09/22 03:22:41;;;;;;;59.20;3.65;;;;;;;;;;5074378;28;20234;-64
2022/09/22 03:25:10;;;;;;;58.05;3.03;;;;;;;;;;5075515;28;20226;-65
2022/09/22 03:27:38;;;;;;;58.80;3.00;;;;;;;;;;5074993;28;20218;-66
2022/09/22 03:30:05;;;;;;;58.33;3.40;;;;;;;;;;5074398;28;20211;-66
2022/09/22 03:32:32;;;;;;;59.10;3.60;;;;;;;;;;5075010;28;20206;-65
2022/09/22 03:34:59;;;;;;;58.33;3.20;;;;;;;;;;5075462;28;20242;-64
2022/09/22 03:37:27;;;;;;;58.70;3.85;;;;;;;;;;5074339;28;20218;-66
2022/09/22 03:39:54;;;;;;;58.25;3.33;;;;;;;;;;5074328;28;20208;-66
2022/09/22 03:42:22;;;;;;;58.88;4.03;;;;;;;;;;5074641;28;20624;-64
2022/09/22 03:44:49;;;;;;;59.00;3.85;;;;;;;;;;5074296;28;20236;-66
2022/09/22 03:47:18;;;;;;;59.10;3.60;;;;;;;;;;5074230;28;20588;-66
2022/09/22 03:49:45;;;;;;;60.40;4.00;;;;;;;;;;5073792;28;20207;-65
2022/09/22 03:52:12;;;;;;;58.58;3.05;;;;;;;;;;5073879;28;20227;-65
2022/09/22 03:54:39;;;;;;;58.80;3.00;;;;;;;;;;5073764;28;20228;-66
2022/09/22 03:57:06;;;;;;;58.80;3.22;;;;;;;;;;5074112;28;20201;-65
2022/09/22 03:59:35;;;;;;;60.13;4.35;;;;;;;;;;5073470;28;20204;-65
2022/09/22 04:02:03;;;;;;;58.40;3.00;;;;;;;;;;5073871;28;20741;-64
2022/09/22 04:04:31;;;;;;;58.70;3.50;;;;;;;;;;5073968;28;20226;-64
2022/09/22 04:06:59;;;;;;;58.58;3.03;;;;;;;;;;5074052;28;20209;-65
2022/09/22 04:09:26;;;;;;;62.30;4.50;;;;;;;;;;5073491;28;20286;-65
2022/09/22 04:11:53;;;;;;;58.75;3.50;;;;;;;;;;5074091;28;20218;-65
2022/09/22 04:14:20;;;;;;;59.00;3.58;;;;;;;;;;5073892;28;20227;-65
2022/09/22 04:16:48;;;;;;;58.95;3.58;;;;;;;;;;5074021;28;20211;-64
2022/09/22 04:19:15;;;;;;;58.90;3.42;;;;;;;;;;5073214;28;20211;-65
2022/09/22 04:21:44;;;;;;;58.92;3.88;;;;;;;;;;5074005;28;20222;-64
2022/09/22 04:24:11;;;;;;;58.47;3.13;;;;;;;;;;5073396;28;20256;-65
2022/09/22 04:26:38;;;;;;;58.58;2.92;;;;;;;;;;5073378;28;20676;-65
2022/09/22 04:29:05;;;;;;;58.90;3.30;;;;;;;;;;5073300;28;20204;-65
2022/09/22 04:31:32;;;;;;;58.83;3.10;;;;;;;;;;5073041;28;20682;-66
2022/09/22 04:34:01;;;;;;;66.18;5.65;;;;;;;;;;5073393;28;20231;-66
2022/09/22 04:36:28;;;;;;;59.88;4.75;;;;;;;;;;5073433;28;20214;-65
2022/09/22 04:38:55;;;;;;;59.55;3.90;;;;;;;;;;5073580;28;20204;-64
2022/09/22 04:41:22;;;;;;;58.55;2.90;;;;;;;;;;5073686;28;20240;-65
2022/09/22 04:43:49;;;;;;;58.03;3.40;;;;;;;;;;5073277;28;20274;-65
2022/09/22 04:46:16;;;;;;;66.13;3.58;;;;;;;;;;5073081;28;20209;-66
2022/09/22 04:48:43;;;;;;;59.28;3.45;;;;;;;;;;5073212;28;20210;-65
2022/09/22 04:51:12;;;;;;;59.60;3.40;;;;;;;;;;5073710;28;20216;-66
2022/09/22 04:53:39;;;;;;;58.78;3.10;;;;;;;;;;5073349;28;20219;-65
2022/09/22 04:56:06;;;;;;;58.83;3.08;;;;;;;;;;5073474;28;20587;-65
2022/09/22 04:58:33;;;;;;;58.70;3.25;;;;;;;;;;5073799;28;20213;-65
2022/09/22 05:01:03;;;;;;;60.28;3.67;;;;;;;;;;5073992;28;20208;-68
2022/09/22 05:03:30;;;;;;;58.80;3.30;;;;;;;;;;5073470;28;20213;-66
2022/09/22 05:05:57;;;;;;;58.17;2.90;;;;;;;;;;5073529;28;20212;-64
2022/09/22 05:08:26;;;;;;;58.45;2.92;;;;;;;;;;5073070;28;20677;-67
2022/09/22 05:10:55;;;;;;;58.55;2.92;;;;;;;;;;5073300;28;20206;-66
2022/09/22 05:13:24;;;;;;;59.38;4.20;;;;;;;;;;5073226;28;20238;-66
2022/09/22 05:15:51;;;;;;;58.38;3.40;;;;;;;;;;5073261;28;20206;-66
2022/09/22 05:18:18;;;;;;;58.38;3.17;;;;;;;;;;5072932;28;20245;-66
2022/09/22 05:20:45;;;;;;;58.25;3.20;;;;;;;;;;5072868;28;20232;-65
2022/09/22 05:23:12;;;;;;;58.90;3.47;;;;;;;;;;5072993;28;20227;-65
2022/09/22 05:25:41;;;;;;;58.80;3.80;;;;;;;;;;5073239;28;20658;-67
2022/09/22 05:28:08;;;;;;;62.10;3.58;;;;;;;;;;5072671;28;20214;-65
2022/09/22 05:30:35;;;;;;;62.70;4.63;;;;;;;;;;5073124;28;20216;-66
2022/09/22 05:33:02;;;;;;;58.60;3.60;;;;;;;;;;5073034;28;20666;-65
2022/09/22 05:35:29;;;;;;;58.47;3.10;;;;;;;;;;5074410;28;20253;-66
2022/09/22 05:37:57;;;;;;;59.20;3.92;;;;;;;;;;5073049;28;20218;-65
2022/09/22 05:40:25;;;;;;;59.67;4.57;;;;;;;;;;5072831;28;20201;-66
2022/09/22 05:42:54;;;;;;;58.42;2.92;;;;;;;;;;5073266;28;20231;-65
2022/09/22 05:45:21;;;;;;;58.40;3.25;;;;;;;;;;5075756;28;20715;-65
2022/09/22 05:47:49;;;;;;;58.28;3.40;;;;;;;;;;5077610;28;20205;-66
2022/09/22 05:50:17;;;;;;;57.80;2.85;;;;;;;;;;5077794;28;20208;-66
2022/09/22 05:52:44;;;;;;;58.55;3.50;;;;;;;;;;5078053;28;20663;-65
2022/09/22 05:55:12;;;;;;;59.38;3.50;;;;;;;;;;5077989;28;20231;-66
2022/09/22 05:57:39;;;;;;;58.58;2.70;;;;;;;;;;5077810;28;20218;-64
2022/09/22 06:00:09;;;;;;;58.22;3.42;;;;;;;;;;5076804;28;20211;-65
2022/09/22 06:02:37;;;;;;;58.00;3.20;;;;;;;;;;5077367;28;20221;-66
2022/09/22 06:05:04;;;;;;;61.03;5.57;;;;;;;;;;5076527;28;20222;-66
2022/09/22 06:07:31;;;;;;;61.97;5.90;;;;;;;;;;5076554;28;20219;-66
2022/09/22 06:09:58;;;;;;;58.00;2.67;;;;;;;;;;5076440;28;20683;-66
2022/09/22 06:12:25;;;;;;;58.45;3.47;;;;;;;;;;5076556;28;20221;-64
2022/09/22 06:14:52;;;;;;;59.30;3.67;;;;;;;;;;5076631;28;20232;-66
2022/09/22 06:17:22;;;;;;;58.47;2.92;;;;;;;;;;5075934;28;20208;-65
2022/09/22 06:19:49;;;;;;;60.05;4.20;;;;;;;;;;5075785;28;20588;-66
2022/09/22 06:22:17;;;;;;;57.90;2.70;;;;;;;;;;5076901;28;20647;-65
2022/09/22 06:24:44;;;;;;;58.25;3.40;;;;;;;;;;5076449;28;20232;-66
2022/09/22 06:27:11;;;;;;;59.00;3.10;;;;;;;;;;5075959;28;20214;-66
2022/09/22 06:29:40;;;;;;;59.97;4.55;;;;;;;;;;5076104;28;20212;-66
2022/09/22 06:32:07;;;;;;;58.25;3.20;;;;;;;;;;5076092;28;20205;-66
2022/09/22 06:34:36;;;;;;;61.92;4.13;;;;;;;;;;5075781;28;20241;-65
2022/09/22 06:37:06;;;;;;;60.42;3.50;;;;;;;;;;5076607;28;20234;-66
2022/09/22 06:39:35;;;;;;;59.45;2.85;;;;;;;;;;5076091;28;20213;-65
2022/09/22 06:42:02;;;;;;;58.35;2.95;;;;;;;;;;5076421;28;20242;-65
2022/09/22 06:44:30;;;;;;;57.90;2.70;;;;;;;;;;5076623;28;20228;-66
2022/09/22 06:46:57;;;;;;;58.70;3.20;;;;;;;;;;5076262;28;20551;-66
2022/09/22 06:49:24;;;;;;;58.88;3.55;;;;;;;;;;5075728;28;20211;-66
2022/09/22 06:51:53;;;;;;;59.75;3.90;;;;;;;;;;5075366;28;20201;-66
2022/09/22 06:54:20;;;;;;;59.03;3.92;;;;;;;;;;5075239;28;20255;-67
2022/09/22 06:56:47;;;;;;;58.72;3.15;;;;;;;;;;5075215;28;20209;-66
2022/09/22 06:59:15;;;;;;;58.25;3.00;;;;;;;;;;5075359;28;20231;-65
2022/09/22 07:01:43;;;;;;;62.13;4.10;;;;;;;;;;5075271;28;20581;-67
2022/09/22 07:04:11;;;;;;;58.42;3.25;;;;;;;;;;5075207;28;20229;-68
2022/09/22 07:06:39;;;;;;;57.90;2.90;;;;;;;;;;5075616;28;20266;-66
2022/09/22 07:09:08;;;;;;;59.05;3.60;;;;;;;;;;5074991;28;20210;-65
2022/09/22 07:11:36;;;;;;;57.88;2.88;;;;;;;;;;5076593;28;20209;-66
2022/09/22 07:14:03;;;;;;;58.80;3.90;;;;;;;;;;5074291;28;20227;-65
2022/09/22 07:16:30;;;;;;;61.15;3.78;;;;;;;;;;5075294;28;20205;-65
2022/09/22 07:18:58;;;;;;;58.45;3.17;;;;;;;;;;5074038;28;20585;-65
2022/09/22 07:21:26;;;;;;;59.10;2.72;;;;;;;;;;5074152;28;20208;-63
2022/09/22 07:23:54;;;;;;;58.33;2.95;;;;;;;;;;5074463;28;20709;-65
2022/09/22 07:26:25;;;;;;;58.97;3.63;;;;;;;;;;5074281;28;20201;-63
2022/09/22 07:28:53;;;;;;;58.67;3.40;;;;;;;;;;5073881;28;20209;-64
2022/09/22 07:31:20;;;;;;;58.17;3.03;;;;;;;;;;5074329;28;20623;-64
2022/09/22 07:33:48;;;;;;;58.45;2.92;;;;;;;;;;5073530;28;20227;-63
2022/09/22 07:36:17;;;;;;;60.13;4.53;;;;;;;;;;5072798;28;20209;-65
2022/09/22 07:38:48;;;;;;;60.70;4.68;;;;;;;;;;5072324;28;20665;-65
2022/09/22 07:41:17;;;;;;;59.05;3.58;;;;;;;;;;5072895;28;20205;-65
2022/09/22 07:43:46;;;;;;;59.20;3.53;;;;;;;;;;5072448;28;20233;-65
2022/09/22 07:46:13;;;;;;;59.97;4.60;;;;;;;;;;5072924;28;20208;-65
2022/09/22 07:48:45;;;;;;;58.50;3.57;;;;;;;;;;5072083;28;20966;-65
2022/09/22 07:51:17;;;;;;;58.42;3.20;;;;;;;;;;5072599;28;20952;-65
2022/09/22 07:53:45;;;;;;;59.20;3.23;;;;;;;;;;5072289;28;21645;-65
2022/09/22 07:56:13;;;;;;;59.20;3.40;;;;;;;;;;5072518;28;20455;-64
2022/09/22 07:58:41;;;;;;;58.63;3.13;;;;;;;;;;5072048;28;20485;-66
2022/09/22 08:01:11;;;;;;;62.30;3.60;;;;;;;;;;5072144;28;20447;-64
2022/09/22 08:03:38;;;;;;;58.50;2.97;;;;;;;;;;5072047;28;20475;-65
2022/09/22 08:06:09;;;;;;;58.53;3.10;;;;;;;;;;5072043;28;20517;-66
2022/09/22 08:08:37;;;;;;;59.37;3.67;;;;;;;;;;5071634;28;20443;-65
2022/09/22 08:11:05;;;;;;;60.20;3.30;;;;;;;;;;5072218;28;20451;-66
2022/09/22 08:13:33;;;;;;;58.73;3.73;;;;;;;;;;5072235;28;20815;-65
2022/09/22 08:16:02;;;;;;;58.50;3.10;;;;;;;;;;5072035;28;20505;-66
2022/09/22 08:18:31;;;;;;;59.00;3.50;;;;;;;;;;5072096;28;20537;-64
2022/09/22 08:20:59;;;;;;;58.80;3.10;;;;;;;;;;5071904;28;20454;-65
2022/09/22 08:23:26;;;;;;;58.70;3.17;;;;;;;;;;5072470;28;20486;-65
2022/09/22 08:25:53;;;;;;;58.47;2.80;;;;;;;;;;5072682;28;20479;-64
2022/09/22 08:28:20;;;;;;;58.60;3.10;;;;;;;;;;5072721;28;20448;-65
2022/09/22 08:30:48;;;;;;;64.20;3.43;;;;;;;;;;5072255;28;20443;-64
2022/09/22 08:33:15;;;;;;;58.47;3.30;;;;;;;;;;5072422;28;20447;-66
2022/09/22 08:35:52;;;;;;;58.47;3.47;;;;;;;;;;5072797;28;20482;-65
2022/09/22 08:38:22;;;;;;;58.20;2.83;;;;;;;;;;5072620;28;20474;-64
2022/09/22 08:40:57;;;;;;;58.80;3.00;;;;;;;;;;5071890;28;20462;-65
2022/09/22 08:43:24;;;;;;;59.40;2.97;;;;;;;;;;5072636;28;20483;-65
2022/09/22 08:45:52;;;;;;;59.17;4.20;;;;;;;;;;5072301;28;20454;-65
2022/09/22 08:53:56;;;;;;;58.37;3.10;;;;;;;;;;5072298;28;20822;-66
2022/09/22 08:56:29;;;;;;;58.40;3.30;;;;;;;;;;5072581;28;20967;-64
2022/09/22 08:58:58;;;;;;;59.20;3.77;;;;;;;;;;5072789;28;20446;-65
2022/09/22 09:01:30;;;;;;;58.20;2.60;;;;;;;;;;5072421;28;20448;-66
2022/09/22 09:04:04;;;;;;;58.20;2.47;;;;;;;;;;5072868;28;20498;-66
2022/09/22 09:06:35;;;;;;;58.37;2.63;;;;;;;;;;5072601;28;20447;-66
2022/09/22 09:09:19;;;;;;;59.10;3.17;;;;;;;;;;5072020;28;20451;-65
2022/09/22 09:12:00;;;;;;;58.07;2.70;;;;;;;;;;5072323;28;20457;-66
2022/09/22 09:14:34;;;;;;;59.07;3.07;;;;;;;;;;5069703;28;20472;-65
2022/09/22 09:17:04;;;;;;;58.40;2.90;;;;;;;;;;5072123;28;20443;-66
2022/09/22 09:19:33;;;;;;;58.10;2.60;;;;;;;;;;5073027;28;20465;-65
2022/09/22 09:22:03;;;;;;;58.17;2.77;;;;;;;;;;5076068;28;20451;-64
2022/09/22 09:24:33;;;;;;;58.17;2.73;;;;;;;;;;5075689;28;20478;-64
2022/09/22 09:27:08;;;;;;;58.67;2.90;;;;;;;;;;5075579;28;21021;-66
2022/09/22 09:29:42;;;;;;;58.10;2.20;;;;;;;;;;5075290;28;20442;-65
2022/09/22 09:32:15;;;;;;;58.20;2.80;;;;;;;;;;5075950;28;20453;-65
2022/09/22 09:34:46;;;;;;;58.20;2.40;;;;;;;;;;5075180;28;21000;-66
2022/09/22 09:37:15;;;;;;;58.13;2.70;;;;;;;;;;5075229;28;20460;-66
2022/09/22 09:39:43;;;;;;;57.97;2.60;;;;;;;;;;5074753;28;20457;-66
2022/09/22 09:42:16;;;;;;;58.07;2.60;;;;;;;;;;5074921;28;20450;-66
2022/09/22 09:44:45;;;;;;;58.20;2.50;;;;;;;;;;5074771;28;20545;-66
2022/09/22 09:47:18;;;;;;;57.80;2.40;;;;;;;;;;5074816;28;20881;-65
2022/09/22 09:49:45;;;;;;;57.77;2.50;;;;;;;;;;5074380;28;20443;-67
2022/09/22 09:52:13;;;;;;;57.63;2.00;;;;;;;;;;5074699;28;20453;-66
2022/09/22 09:54:43;;;;;;;57.97;2.20;;;;;;;;;;5074381;28;20463;-66
2022/09/22 09:57:11;;;;;;;59.53;2.40;;;;;;;;;;5074665;28;20450;-66
2022/09/22 10:02:39;;;;;;;57.53;2.00;;;;;;;;;;5032181;28;20487;-65
2022/09/22 10:05:08;;;;;;;57.63;1.90;;;;;;;;;;5032263;28;20456;-66
2022/09/22 10:07:40;;;;;;;57.47;1.93;;;;;;;;;;5051269;28;20459;-66
2022/09/22 10:10:31;;;;;;;57.53;1.90;;;;;;;;;;5073952;28;20454;-66
2022/09/22 10:13:15;;;;;;;57.50;1.90;;;;;;;;;;5074796;28;20455;-66
2022/09/22 10:15:43;;;;;;;57.17;1.70;;;;;;;;;;5075286;28;20467;-66
2022/09/22 10:18:28;;;;;;;57.37;1.90;;;;;;;;;;5074948;28;20447;-65
2022/09/22 10:21:03;;;;;;;57.37;2.10;;;;;;;;;;5075144;28;20447;-66
2022/09/22 10:23:31;;;;;;;57.50;2.00;;;;;;;;;;5074314;28;20532;-67
2022/09/22 10:26:13;;;;;;;57.40;1.93;;;;;;;;;;5074891;28;20767;-65
2022/09/22 10:28:40;;;;;;;59.27;2.10;;;;;;;;;;5073950;28;20947;-64
2022/09/22 10:31:18;;;;;;;57.27;1.80;;;;;;;;;;5075688;28;20447;-66
2022/09/22 10:33:53;;;;;;;57.33;1.90;;;;;;;;;;5076431;28;20463;-65
2022/09/22 10:36:24;;;;;;;57.17;1.70;;;;;;;;;;5075015;28;20447;-66
2022/09/22 10:38:52;;;;;;;57.40;1.93;;;;;;;;;;5074450;28;20447;-65
2022/09/22 10:41:22;;;;;;;57.80;1.80;;;;;;;;;;5075809;28;20460;-65
2022/09/22 10:43:50;;;;;;;57.13;1.70;;;;;;;;;;5074763;28;20489;-64
2022/09/22 10:46:36;;;;;;;57.07;1.80;;;;;;;;;;5075393;28;20450;-66
2022/09/22 10:49:06;;;;;;;57.07;1.80;;;;;;;;;;5075132;28;20493;-65
2022/09/22 10:51:42;;;;;;;57.40;1.80;;;;;;;;;;5074260;28;20456;-66
2022/09/22 10:54:18;;;;;;;57.57;1.90;;;;;;;;;;5074188;28;20873;-66
2022/09/22 10:56:50;;;;;;;57.30;2.00;;;;;;;;;;5074060;28;20443;-66
2022/09/22 10:59:22;;;;;;;57.27;1.80;;;;;;;;;;5073511;28;20986;-65
2022/09/22 11:01:59;;;;;;;57.07;1.70;;;;;;;;;;5074697;28;20446;-65
2022/09/22 11:04:41;;;;;;;57.40;1.90;;;;;;;;;;5073241;28;20978;-65
2022/09/22 11:12:52;;;;;;;57.10;1.73;;;;;;;;;;5074057;28;20930;-66
2022/09/22 11:15:26;;;;;;;57.07;1.70;;;;;;;;;;5073775;28;21023;-66
2022/09/22 11:18:01;;;;;;;57.07;2.00;;;;;;;;;;5073804;28;20895;-66
2022/09/22 11:20:35;;;;;;;56.87;1.80;;;;;;;;;;5071906;28;20447;-66
2022/09/22 11:23:20;;;;;;;56.90;1.93;;;;;;;;;;5075659;28;20447;-66
2022/09/22 11:25:54;;;;;;;57.27;1.80;;;;;;;;;;5075608;28;20467;-67
2022/09/22 11:28:33;;;;;;;57.23;2.00;;;;;;;;;;5073374;28;20955;-66
2022/09/22 11:31:00;;;;;;;57.30;1.87;;;;;;;;;;5072556;28;20455;-65
2022/09/22 11:33:38;;;;;;;57.20;1.80;;;;;;;;;;5072075;28;20463;-66
2022/09/22 11:36:16;;;;;;;57.17;1.70;;;;;;;;;;5071815;28;20443;-67
2022/09/22 11:38:53;;;;;;;57.17;1.73;;;;;;;;;;5071731;28;20443;-66
2022/09/22 11:41:29;;;;;;;57.07;1.80;;;;;;;;;;5071236;28;20470;-65
2022/09/22 11:44:05;;;;;;;57.20;1.90;;;;;;;;;;5071739;28;20490;-67
2022/09/22 11:46:38;;;;;;;56.97;1.80;;;;;;;;;;5072102;28;20481;-66
2022/09/22 11:49:10;;;;;;;57.13;1.90;;;;;;;;;;5070751;28;20469;-65
2022/09/22 11:51:48;;;;;;;57.17;1.90;;;;;;;;;;5071842;28;20454;-67
2022/09/22 11:54:30;;;;;;;56.80;1.83;;;;;;;;;;5070921;28;20464;-64
2022/09/22 11:56:59;;;;;;;57.03;1.80;;;;;;;;;;5070896;28;20978;-64
2022/09/22 11:59:37;;;;;;;57.07;1.90;;;;;;;;;;5070186;28;20447;-62
2022/09/22 12:02:05;;;;;;;57.30;1.80;;;;;;;;;;5051485;28;20448;-66
2022/09/22 12:04:36;;;;;;;57.10;2.00;;;;;;;;;;5052046;28;21022;-66
2022/09/22 12:07:08;;;;;;;58.10;2.00;;;;;;;;;;5052054;28;20484;-66
2022/09/22 12:09:36;;;;;;;57.27;2.00;;;;;;;;;;5051361;28;20976;-65
2022/09/22 12:12:04;;;;;;;56.67;1.70;;;;;;;;;;5052062;28;20452;-66
2022/09/22 12:14:33;;;;;;;56.97;1.77;;;;;;;;;;5051193;28;20777;-66
2022/09/22 12:17:02;;;;;;;58.07;2.10;;;;;;;;;;5051230;28;20444;-66
2022/09/22 12:19:33;;;;;;;57.27;2.00;;;;;;;;;;5051522;28;20455;-67
2022/09/22 12:22:06;;;;;;;57.17;1.93;;;;;;;;;;5051150;28;20459;-67
2022/09/22 12:24:33;;;;;;;57.10;1.90;;;;;;;;;;5051196;28;20488;-67
2022/09/22 12:27:09;;;;;;;56.87;1.60;;;;;;;;;;5051985;28;20487;-66
2022/09/22 12:29:38;;;;;;;57.50;2.00;;;;;;;;;;5052692;28;20452;-66
2022/09/22 12:32:06;;;;;;;57.20;2.20;;;;;;;;;;5053380;28;20447;-67
2022/09/22 12:34:34;;;;;;;56.90;1.90;;;;;;;;;;5070859;28;20562;-67
2022/09/22 12:37:10;;;;;;;57.07;1.90;;;;;;;;;;5070691;28;20458;-66
2022/09/22 12:39:40;;;;;;;57.03;1.70;;;;;;;;;;5071371;28;20462;-66
2022/09/22 12:42:14;;;;;;;57.27;1.90;;;;;;;;;;5070700;28;20444;-66
2022/09/22 12:44:45;;;;;;;57.30;1.90;;;;;;;;;;5070988;28;20482;-67
2022/09/22 12:47:19;;;;;;;57.27;1.90;;;;;;;;;;5071469;28;20457;-65
2022/09/22 12:49:51;;;;;;;57.37;1.90;;;;;;;;;;5070992;28;20453;-66
2022/09/22 12:52:37;;;;;;;57.03;1.90;;;;;;;;;;5071271;28;20458;-66
2022/09/22 12:55:18;;;;;;;57.17;1.90;;;;;;;;;;5074323;28;20528;-67
2022/09/22 12:57:46;;;;;;;57.03;1.80;;;;;;;;;;5074998;28;20454;-66
2022/09/22 13:00:28;;;;;;;57.13;1.90;;;;;;;;;;5074969;28;20498;-66
2022/09/22 13:02:57;;;;;;;57.43;2.03;;;;;;;;;;5075495;28;20442;-66
2022/09/22 13:05:41;;;;;;;57.10;1.80;;;;;;;;;;5072509;28;20525;-68
2022/09/22 13:08:16;;;;;;;57.20;2.30;;;;;;;;;;5075297;28;20487;-67
2022/09/22 13:10:51;;;;;;;57.07;1.70;;;;;;;;;;5075182;28;20458;-68
2022/09/22 13:13:22;;;;;;;57.20;1.80;;;;;;;;;;5075244;28;20447;-68
2022/09/22 13:15:58;;;;;;;57.37;2.10;;;;;;;;;;5074396;28;20513;-67
2022/09/22 13:18:30;;;;;;;56.87;1.90;;;;;;;;;;5074863;28;20450;-67
2022/09/22 13:20:58;;;;;;;57.03;1.70;;;;;;;;;;5074626;28;20451;-67
2022/09/22 13:23:26;;;;;;;57.30;1.90;;;;;;;;;;5074736;28;20723;-67
2022/09/22 13:25:53;;;;;;;57.07;1.70;;;;;;;;;;5074062;28;21042;-67
2022/09/22 13:28:21;;;;;;;56.73;1.50;;;;;;;;;;5074848;28;20966;-67
2022/09/22 13:30:58;;;;;;;57.07;1.70;;;;;;;;;;5074808;28;20835;-67
2022/09/22 13:33:26;;;;;;;56.87;1.60;;;;;;;;;;5074660;28;20458;-67
2022/09/22 13:36:02;;;;;;;56.97;1.70;;;;;;;;;;5071991;28;20651;-67
2022/09/22 13:38:30;;;;;;;57.77;1.80;;;;;;;;;;5074138;28;20451;-67
2022/09/22 13:40:57;;;;;;;57.00;1.80;;;;;;;;;;5074211;28;20447;-67
2022/09/22 13:43:27;;;;;;;57.23;1.80;;;;;;;;;;5074457;28;20454;-67
2022/09/22 13:45:55;;;;;;;57.10;1.60;;;;;;;;;;5073695;28;20498;-66
2022/09/22 13:48:22;;;;;;;56.97;1.80;;;;;;;;;;5074741;28;20462;-66
2022/09/22 13:50:50;;;;;;;56.97;2.00;;;;;;;;;;5074372;28;20447;-67
2022/09/22 13:53:20;;;;;;;57.13;1.93;;;;;;;;;;5074475;28;20457;-67
2022/09/22 13:55:48;;;;;;;57.40;1.80;;;;;;;;;;5073927;28;20487;-67
2022/09/22 13:58:19;;;;;;;57.07;1.80;;;;;;;;;;5073638;28;20447;-66
2022/09/22 14:00:47;;;;;;;56.90;1.67;;;;;;;;;;5074323;28;20451;-66
2022/09/22 14:03:18;;;;;;;57.07;1.80;;;;;;;;;;5074122;28;20951;-66
2022/09/22 14:05:46;;;;;;;57.00;1.90;;;;;;;;;;5072793;28;20501;-66
2022/09/22 14:08:15;;;;;;;57.20;1.73;;;;;;;;;;5071817;28;20454;-67
2022/09/22 14:10:45;;;;;;;57.07;1.90;;;;;;;;;;5073836;28;20702;-66
2022/09/22 14:13:31;;;;;;;57.20;1.90;;;;;;;;;;5074326;28;20463;-67
2022/09/22 14:16:06;;;;;;;57.40;1.80;;;;;;;;;;5073474;28;20969;-67
2022/09/22 14:18:33;;;;;;;57.00;1.80;;;;;;;;;;5074091;28;20470;-65
2022/09/22 14:21:00;;;;;;;57.20;1.80;;;;;;;;;;5074020;28;21049;-66
2022/09/22 14:23:28;;;;;;;57.13;1.90;;;;;;;;;;5074537;28;20458;-66
2022/09/22 14:25:58;;;;;;;56.90;1.50;;;;;;;;;;5073220;28;20495;-65
2022/09/22 14:28:26;;;;;;;56.97;1.80;;;;;;;;;;5073749;28;20453;-66
2022/09/22 14:30:54;;;;;;;56.97;1.80;;;;;;;;;;5073592;28;20447;-66
2022/09/22 14:33:22;;;;;;;57.00;1.80;;;;;;;;;;5073673;28;20543;-67
2022/09/22 14:35:51;;;;;;;57.30;1.70;;;;;;;;;;5072749;28;20490;-66
2022/09/22 14:38:19;;;;;;;57.40;2.00;;;;;;;;;;5070585;28;20456;-66
2022/09/22 14:40:53;;;;;;;57.30;1.90;;;;;;;;;;5073414;28;20836;-67
2022/09/22 14:43:26;;;;;;;57.20;2.07;;;;;;;;;;5072858;28;20466;-66
2022/09/22 14:45:57;;;;;;;57.60;2.00;;;;;;;;;;5072557;28;20933;-66
2022/09/22 14:48:28;;;;;;;57.13;2.07;;;;;;;;;;5073041;28;20454;-66
2022/09/22 14:50:57;;;;;;;57.70;1.90;;;;;;;;;;5073410;28;20459;-67
2022/09/22 14:53:25;;;;;;;57.50;2.10;;;;;;;;;;5073127;28;20447;-67
2022/09/22 14:55:53;;;;;;;57.30;1.83;;;;;;;;;;5072730;28;20451;-65
2022/09/22 14:58:23;;;;;;;57.27;2.07;;;;;;;;;;5072581;28;20451;-66
2022/09/22 15:03:42;;;;;;;57.13;1.97;;;;;;;;;;5072688;28;20943;-66
2022/09/22 15:06:11;;;;;;;57.50;2.10;;;;;;;;;;5072471;28;20502;-67
2022/09/22 15:08:38;;;;;;;57.50;1.90;;;;;;;;;;5072649;28;20447;-66